Time;durP1;ratioP1;P1;durP2;ratioP2;P2;SDS_P1;SDS_P2;PMS_P1;PMS_P2;Temp;Humidity;BMP_temperature;BMP_pressure;BME280_temperature;BME280_humidity;BME280_pressure;Samples;Min_cycle;Max_cycle;Signal;HPM_P1;HPM_P2
2022/03/28 00:00:25;;;;;;;11.70;8.70;;;16.70;38.50;;;;;;5027859;28;20196;-43
2022/03/28 00:02:51;;;;;;;8.83;7.93;;;16.70;38.40;;;;;;5046772;28;20529;-43
2022/03/28 00:05:17;;;;;;;9.27;8.20;;;16.70;38.50;;;;;;5046911;28;20431;-43
2022/03/28 00:07:43;;;;;;;11.73;8.77;;;16.70;38.70;;;;;;5045714;28;20979;-44
2022/03/28 00:10:11;;;;;;;14.60;8.50;;;16.70;38.80;;;;;;5042636;28;20188;-44
2022/03/28 00:12:38;;;;;;;10.70;7.90;;;16.50;39.50;;;;;;5040719;28;20938;-43
2022/03/28 00:15:05;;;;;;;14.20;7.47;;;16.50;38.90;;;;;;5044560;28;20800;-43
2022/03/28 00:17:32;;;;;;;10.00;7.77;;;16.50;38.70;;;;;;5049092;28;20834;-43
2022/03/28 00:20:03;;;;;;;14.30;8.13;;;16.40;38.70;;;;;;5041903;28;20447;-43
2022/03/28 00:22:28;;;;;;;17.20;9.13;;;16.40;39.00;;;;;;5039158;28;20449;-42
2022/03/28 00:24:54;;;;;;;10.20;8.20;;;16.40;39.30;;;;;;5044918;28;20489;-44
2022/03/28 00:27:20;;;;;;;12.83;8.20;;;16.40;39.00;;;;;;5039589;28;20284;-42
2022/03/28 00:29:46;;;;;;;10.87;8.53;;;16.30;39.10;;;;;;5044280;28;20188;-42
2022/03/28 00:32:11;;;;;;;9.80;8.00;;;16.30;39.30;;;;;;5040857;28;20199;-42
2022/03/28 00:34:37;;;;;;;13.27;8.60;;;16.30;39.30;;;;;;5040066;28;20204;-42
2022/03/28 00:37:04;;;;;;;14.10;8.63;;;16.20;39.40;;;;;;5049055;28;20246;-43
2022/03/28 00:39:30;;;;;;;9.27;7.40;;;16.20;39.20;;;;;;5041725;28;20446;-43
2022/03/28 00:41:56;;;;;;;8.77;7.13;;;16.10;39.60;;;;;;5041923;28;20470;-44
2022/03/28 00:44:22;;;;;;;11.53;8.60;;;16.00;40.20;;;;;;5043776;28;20455;-44
2022/03/28 00:46:48;;;;;;;10.73;7.57;;;16.10;40.20;;;;;;5044820;28;20193;-44
2022/03/28 00:49:14;;;;;;;13.33;8.60;;;16.00;40.30;;;;;;5046900;28;20898;-42
2022/03/28 00:51:40;;;;;;;14.60;9.30;;;16.10;40.40;;;;;;5047988;28;20478;-43
2022/03/28 00:54:06;;;;;;;10.73;8.10;;;16.20;39.90;;;;;;5041193;28;20554;-42
2022/03/28 00:56:33;;;;;;;11.40;9.70;;;16.20;39.60;;;;;;5045796;28;20478;-43
2022/03/28 00:58:58;;;;;;;14.80;8.87;;;16.30;39.50;;;;;;5050095;28;20490;-42
2022/03/28 01:01:27;;;;;;;14.40;8.40;;;16.30;39.20;;;;;;5045435;28;20463;-43
2022/03/28 01:03:53;;;;;;;11.43;8.17;;;16.30;39.30;;;;;;5036775;28;20901;-42
2022/03/28 01:06:19;;;;;;;13.53;8.30;;;16.30;39.30;;;;;;5043215;28;20435;-45
2022/03/28 01:08:44;;;;;;;12.57;8.00;;;16.20;39.60;;;;;;5047681;28;20196;-45
2022/03/28 01:11:10;;;;;;;10.43;7.80;;;16.10;39.70;;;;;;5044903;28;20612;-45
2022/03/28 01:13:38;;;;;;;15.63;8.10;;;16.10;40.20;;;;;;5042113;28;20193;-44
2022/03/28 01:16:04;;;;;;;10.23;7.37;;;16.20;39.70;;;;;;5025148;28;21506;-46
2022/03/28 01:18:31;;;;;;;12.03;8.70;;;16.20;39.80;;;;;;5048704;28;20454;-43
2022/03/28 01:21:01;;;;;;;11.97;8.60;;;16.10;40.00;;;;;;5046657;28;20550;-43
2022/03/28 01:23:27;;;;;;;8.30;7.30;;;16.00;40.10;;;;;;5045305;28;20486;-43
2022/03/28 01:25:54;;;;;;;12.83;8.20;;;16.00;40.20;;;;;;5048306;28;20505;-43
2022/03/28 01:28:21;;;;;;;12.60;8.33;;;16.00;40.10;;;;;;5057619;28;20197;-42
2022/03/28 01:30:47;;;;;;;16.90;8.90;;;16.00;39.80;;;;;;5047493;28;20816;-44
2022/03/28 01:33:14;;;;;;;12.07;8.90;;;16.00;40.00;;;;;;5047959;28;20505;-43
2022/03/28 01:35:41;;;;;;;11.70;8.20;;;15.90;40.20;;;;;;5051303;28;20443;-43
2022/03/28 01:38:13;;;;;;;12.50;9.67;;;15.80;40.30;;;;;;5052083;28;20479;-45
2022/03/28 01:40:41;;;;;;;13.47;8.07;;;15.80;40.30;;;;;;5054742;28;20446;-42
2022/03/28 01:43:08;;;;;;;12.50;9.20;;;15.80;40.30;;;;;;5055451;28;20439;-43
2022/03/28 01:45:33;;;;;;;11.53;8.67;;;15.80;40.20;;;;;;5050460;28;20432;-43
2022/03/28 01:47:59;;;;;;;15.03;9.20;;;15.80;40.30;;;;;;5049872;28;20446;-43
2022/03/28 01:50:25;;;;;;;11.83;9.50;;;15.70;40.20;;;;;;5049064;28;20664;-43
2022/03/28 01:52:51;;;;;;;14.87;9.53;;;15.60;40.60;;;;;;5050476;28;20185;-42
2022/03/28 01:55:17;;;;;;;9.67;8.37;;;15.60;40.40;;;;;;5048819;28;20538;-42
2022/03/28 01:57:44;;;;;;;11.83;9.10;;;15.60;40.20;;;;;;5049806;28;20228;-42
2022/03/28 02:00:18;;;;;;;10.83;8.40;;;15.60;40.20;;;;;;5049137;28;21276;-43
2022/03/28 02:02:47;;;;;;;12.63;9.20;;;15.60;40.30;;;;;;5046712;28;20442;-43
2022/03/28 02:05:14;;;;;;;15.13;9.10;;;15.30;40.50;;;;;;5046428;28;21039;-43
2022/03/28 02:07:41;;;;;;;9.67;8.03;;;15.10;41.00;;;;;;5046984;28;20946;-43
2022/03/28 02:10:09;;;;;;;14.10;9.20;;;15.10;41.20;;;;;;5060870;28;20452;-43
2022/03/28 02:12:34;;;;;;;15.07;9.10;;;15.10;41.10;;;;;;5051104;28;20947;-43
2022/03/28 02:15:00;;;;;;;11.53;8.00;;;15.20;41.30;;;;;;5055609;28;20484;-42
2022/03/28 02:17:26;;;;;;;9.10;8.13;;;15.10;41.30;;;;;;5051468;28;20487;-42
2022/03/28 02:19:52;;;;;;;11.90;8.90;;;15.00;41.50;;;;;;5048696;28;20212;-42
2022/03/28 02:22:17;;;;;;;11.70;8.27;;;15.10;41.60;;;;;;5051124;28;20200;-42
2022/03/28 02:24:43;;;;;;;14.80;9.27;;;15.10;41.40;;;;;;5050017;28;20244;-42
2022/03/28 02:27:08;;;;;;;14.50;9.70;;;15.00;41.40;;;;;;5050461;28;20818;-42
2022/03/28 02:29:34;;;;;;;14.53;8.93;;;15.00;41.70;;;;;;5050888;28;20196;-43
2022/03/28 02:32:01;;;;;;;10.83;8.23;;;14.70;42.00;;;;;;5050701;28;20235;-43
2022/03/28 02:34:27;;;;;;;12.00;8.50;;;14.70;42.30;;;;;;5050521;28;20196;-43
2022/03/28 02:36:52;;;;;;;12.17;9.27;;;14.50;42.80;;;;;;5049759;28;21059;-43
2022/03/28 02:39:18;;;;;;;11.70;8.53;;;14.50;42.70;;;;;;5050334;28;20266;-42
2022/03/28 02:41:43;;;;;;;11.13;9.73;;;14.50;42.90;;;;;;5049067;28;20196;-43
2022/03/28 02:44:09;;;;;;;10.97;8.00;;;14.70;42.70;;;;;;5045566;28;20274;-42
2022/03/28 02:46:36;;;;;;;10.50;8.70;;;14.80;42.20;;;;;;5041384;28;20204;-42
2022/03/28 02:49:03;;;;;;;13.13;9.20;;;14.80;42.20;;;;;;5049788;28;20480;-43
2022/03/28 02:51:29;;;;;;;10.13;7.73;;;14.80;42.20;;;;;;5048704;28;20591;-42
2022/03/28 02:53:54;;;;;;;10.77;8.47;;;14.80;42.10;;;;;;5049876;28;20438;-43
2022/03/28 02:56:20;;;;;;;10.03;8.53;;;14.80;42.20;;;;;;5044046;28;20728;-42
2022/03/28 02:58:46;;;;;;;12.57;8.13;;;14.70;42.10;;;;;;5048683;28;20188;-44
2022/03/28 03:01:12;;;;;;;11.43;8.70;;;14.70;42.30;;;;;;5042270;28;20271;-42
2022/03/28 03:03:37;;;;;;;10.83;8.53;;;14.70;42.40;;;;;;5042893;28;20538;-43
2022/03/28 03:06:03;;;;;;;14.37;8.43;;;14.80;42.20;;;;;;5043914;28;20208;-44
2022/03/28 03:08:29;;;;;;;10.97;8.70;;;14.80;42.20;;;;;;5043659;28;20747;-42
2022/03/28 03:10:55;;;;;;;14.07;9.50;;;14.90;42.20;;;;;;5045276;28;20196;-42
2022/03/28 03:13:20;;;;;;;13.30;9.57;;;15.00;41.90;;;;;;5041308;28;20212;-42
2022/03/28 03:15:46;;;;;;;11.30;9.20;;;15.00;41.70;;;;;;5042888;28;20196;-42
2022/03/28 03:18:12;;;;;;;12.73;9.50;;;14.90;41.80;;;;;;5040233;28;20220;-42
2022/03/28 03:20:37;;;;;;;14.83;8.90;;;14.60;42.60;;;;;;5042016;28;20197;-42
2022/03/28 03:23:03;;;;;;;11.17;8.23;;;14.50;42.90;;;;;;5043760;28;20189;-42
2022/03/28 03:25:29;;;;;;;14.00;8.73;;;14.30;43.10;;;;;;5041001;28;20667;-44
2022/03/28 03:27:54;;;;;;;9.83;8.30;;;14.20;43.70;;;;;;5045020;28;20601;-44
2022/03/28 03:30:20;;;;;;;10.03;8.60;;;14.00;44.10;;;;;;5047086;28;20246;-44
2022/03/28 03:32:46;;;;;;;11.83;8.10;;;13.90;44.30;;;;;;5053545;28;20180;-43
2022/03/28 03:35:12;;;;;;;13.27;8.00;;;13.90;44.40;;;;;;5046974;28;20442;-42
2022/03/28 03:37:39;;;;;;;14.43;8.73;;;13.70;44.50;;;;;;5041114;28;20228;-42
2022/03/28 03:40:06;;;;;;;9.80;7.97;;;13.70;44.60;;;;;;5054188;28;20503;-42
2022/03/28 03:42:32;;;;;;;12.20;8.73;;;13.90;44.10;;;;;;5045708;28;20435;-42
2022/03/28 03:44:58;;;;;;;11.70;9.07;;;14.00;43.70;;;;;;5039974;28;20451;-42
2022/03/28 03:47:24;;;;;;;11.63;9.40;;;14.10;43.60;;;;;;5053641;28;20533;-42
2022/03/28 03:49:50;;;;;;;10.03;8.60;;;14.00;43.40;;;;;;5051559;28;20522;-42
2022/03/28 03:52:16;;;;;;;12.23;8.60;;;14.00;43.80;;;;;;5042062;28;20195;-43
2022/03/28 03:54:42;;;;;;;12.87;8.90;;;13.90;44.00;;;;;;5038937;28;20612;-43
2022/03/28 03:57:07;;;;;;;17.03;9.40;;;13.90;44.60;;;;;;5046830;28;20983;-42
2022/03/28 03:59:33;;;;;;;13.87;9.13;;;14.00;44.00;;;;;;5041046;28;20196;-43
2022/03/28 04:01:59;;;;;;;14.67;9.70;;;14.10;43.80;;;;;;5054781;28;20216;-43
2022/03/28 04:04:25;;;;;;;13.23;8.90;;;13.90;43.80;;;;;;5042501;28;20550;-45
2022/03/28 04:06:50;;;;;;;11.23;8.70;;;13.90;43.70;;;;;;5048475;28;20250;-42
2022/03/28 04:09:16;;;;;;;15.03;8.70;;;14.00;43.70;;;;;;5056771;28;20614;-43
2022/03/28 04:11:42;;;;;;;11.00;8.77;;;13.90;43.60;;;;;;5049789;28;20184;-43
2022/03/28 04:14:07;;;;;;;13.47;8.57;;;14.00;43.70;;;;;;5054964;28;20197;-44
2022/03/28 04:16:34;;;;;;;10.17;8.33;;;14.00;43.40;;;;;;5047257;28;20216;-45
2022/03/28 04:18:59;;;;;;;12.43;7.90;;;13.90;43.50;;;;;;5044011;28;20200;-42
2022/03/28 04:21:25;;;;;;;12.10;8.87;;;13.80;43.60;;;;;;5051826;28;20476;-44
2022/03/28 04:23:51;;;;;;;10.83;9.10;;;13.60;43.80;;;;;;5049566;28;20232;-43
2022/03/28 04:26:16;;;;;;;10.03;8.07;;;13.40;44.30;;;;;;5046538;28;20662;-42
2022/03/28 04:28:42;;;;;;;10.13;8.10;;;13.50;44.50;;;;;;5048536;28;20562;-42
2022/03/28 04:31:08;;;;;;;10.63;8.70;;;13.00;44.70;;;;;;5044572;28;20598;-44
2022/03/28 04:33:34;;;;;;;13.80;8.50;;;12.70;45.60;;;;;;5045369;28;20644;-42
2022/03/28 04:35:59;;;;;;;11.07;9.17;;;12.50;46.20;;;;;;5049964;28;20192;-46
2022/03/28 04:38:25;;;;;;;17.07;8.90;;;12.10;47.10;;;;;;5049864;28;20184;-42
2022/03/28 04:40:51;;;;;;;12.80;8.00;;;11.90;47.80;;;;;;5041603;28;20249;-43
2022/03/28 04:43:17;;;;;;;11.50;9.30;;;11.90;48.20;;;;;;5048063;28;20226;-42
2022/03/28 04:45:43;;;;;;;14.90;9.87;;;12.00;48.30;;;;;;5029751;28;20451;-42
2022/03/28 04:48:09;;;;;;;12.70;8.77;;;12.00;48.00;;;;;;5050055;28;20263;-43
2022/03/28 04:50:35;;;;;;;13.10;9.73;;;12.10;47.70;;;;;;5053802;28;20193;-43
2022/03/28 04:53:00;;;;;;;14.43;8.77;;;11.70;48.50;;;;;;5048846;28;20439;-42
2022/03/28 04:55:27;;;;;;;12.90;8.20;;;11.70;48.90;;;;;;5047752;28;20435;-43
2022/03/28 04:57:53;;;;;;;9.77;8.40;;;11.60;48.30;;;;;;5046607;28;20268;-44
2022/03/28 05:00:18;;;;;;;12.10;8.73;;;11.60;49.00;;;;;;5052692;28;20463;-42
2022/03/28 05:02:44;;;;;;;10.07;7.80;;;11.90;48.70;;;;;;5053853;28;20456;-44
2022/03/28 05:05:10;;;;;;;12.23;8.40;;;12.10;47.90;;;;;;5043829;28;20189;-45
2022/03/28 05:07:36;;;;;;;11.17;8.50;;;12.20;47.50;;;;;;5048275;28;20199;-43
2022/03/28 05:10:03;;;;;;;23.43;9.07;;;12.40;47.50;;;;;;5055169;28;21181;-42
2022/03/28 05:12:28;;;;;;;15.10;10.17;;;12.60;47.10;;;;;;5047600;28;20192;-42
2022/03/28 05:14:55;;;;;;;13.60;9.50;;;12.30;47.20;;;;;;5045655;28;20517;-42
2022/03/28 05:17:25;;;;;;;12.60;8.60;;;12.00;48.50;;;;;;5046140;28;20260;-42
2022/03/28 05:19:51;;;;;;;13.10;8.40;;;12.10;48.20;;;;;;5049816;28;20504;-42
2022/03/28 05:22:18;;;;;;;15.60;8.80;;;12.20;47.80;;;;;;5049614;28;20534;-42
2022/03/28 05:24:44;;;;;;;13.67;8.73;;;12.20;47.60;;;;;;5050546;28;20581;-43
2022/03/28 05:27:09;;;;;;;13.47;8.13;;;12.40;47.40;;;;;;5048096;28;20510;-42
2022/03/28 05:29:35;;;;;;;12.27;9.10;;;12.50;47.10;;;;;;5044311;28;20201;-43
2022/03/28 05:32:01;;;;;;;11.57;9.10;;;12.50;46.50;;;;;;5047075;28;20196;-43
2022/03/28 05:34:30;;;;;;;9.30;7.80;;;12.50;46.60;;;;;;5050462;28;20199;-45
2022/03/28 05:37:00;;;;;;;14.13;9.20;;;12.70;46.30;;;;;;5045593;28;20248;-42
2022/03/28 05:39:26;;;;;;;12.10;9.50;;;12.70;46.10;;;;;;5046982;28;20443;-43
2022/03/28 05:41:53;;;;;;;12.63;9.03;;;12.70;46.00;;;;;;5057404;28;20808;-42
2022/03/28 05:44:19;;;;;;;14.20;9.90;;;12.60;46.10;;;;;;5048862;28;20439;-43
2022/03/28 05:46:46;;;;;;;17.83;10.33;;;12.30;46.50;;;;;;5050939;28;20497;-42
2022/03/28 05:49:12;;;;;;;12.33;9.20;;;12.20;47.00;;;;;;5039768;28;20439;-43
2022/03/28 05:51:38;;;;;;;13.03;9.43;;;12.20;46.90;;;;;;5050822;28;20427;-44
2022/03/28 05:54:03;;;;;;;15.30;9.13;;;12.10;47.30;;;;;;5051559;28;20196;-43
2022/03/28 05:56:29;;;;;;;11.67;9.57;;;12.10;47.40;;;;;;5051090;28;20267;-43
2022/03/28 05:58:54;;;;;;;10.33;9.23;;;12.10;47.30;;;;;;5050050;28;20270;-42
2022/03/28 06:01:20;;;;;;;15.03;9.73;;;12.00;47.00;;;;;;5052406;28;20188;-44
2022/03/28 06:03:46;;;;;;;13.90;9.50;;;12.10;46.90;;;;;;5050551;28;20193;-44
2022/03/28 06:06:11;;;;;;;15.80;8.70;;;12.20;46.80;;;;;;5051450;28;20663;-44
2022/03/28 06:08:37;;;;;;;12.80;9.33;;;12.30;46.80;;;;;;5038819;28;20192;-42
2022/03/28 06:11:06;;;;;;;14.57;10.30;;;12.40;46.50;;;;;;5051036;28;20462;-42
2022/03/28 06:13:33;;;;;;;13.23;9.73;;;12.50;46.60;;;;;;5052015;28;20188;-42
2022/03/28 06:15:59;;;;;;;14.57;9.47;;;12.20;47.10;;;;;;5051036;28;20431;-43
2022/03/28 06:18:25;;;;;;;15.97;10.37;;;12.40;47.00;;;;;;5051573;28;20431;-42
2022/03/28 06:20:51;;;;;;;15.70;10.40;;;12.20;47.40;;;;;;5050710;28;20431;-42
2022/03/28 06:23:17;;;;;;;16.63;11.20;;;12.30;47.10;;;;;;5050474;28;20463;-45
2022/03/28 06:25:42;;;;;;;12.03;8.63;;;12.60;46.50;;;;;;5049682;28;20203;-42
2022/03/28 06:28:09;;;;;;;11.17;8.67;;;13.10;45.50;;;;;;5049486;28;20188;-43
2022/03/28 06:30:35;;;;;;;13.07;9.60;;;13.70;44.20;;;;;;5049567;28;20203;-42
2022/03/28 06:33:00;;;;;;;15.63;9.30;;;14.10;43.30;;;;;;5050498;28;20443;-43
2022/03/28 06:35:26;;;;;;;12.40;9.53;;;14.40;42.90;;;;;;5047525;28;20266;-43
2022/03/28 06:37:53;;;;;;;12.33;9.43;;;14.60;42.70;;;;;;5048671;28;20600;-43
2022/03/28 06:40:19;;;;;;;12.50;9.27;;;14.50;42.10;;;;;;5048335;28;20201;-44
2022/03/28 06:42:44;;;;;;;15.20;10.00;;;14.60;42.20;;;;;;5050756;28;20831;-45
2022/03/28 06:45:11;;;;;;;13.50;9.67;;;14.60;42.10;;;;;;5043591;28;20424;-43
2022/03/28 06:47:37;;;;;;;14.40;9.50;;;14.70;41.80;;;;;;5049061;28;20201;-42
2022/03/28 06:50:07;;;;;;;13.10;9.67;;;14.60;42.00;;;;;;5050812;28;20466;-43
2022/03/28 06:52:34;;;;;;;10.47;8.77;;;14.60;42.00;;;;;;5051027;28;20435;-43
2022/03/28 06:55:00;;;;;;;14.67;9.97;;;14.70;42.10;;;;;;5049957;28;20439;-44
2022/03/28 06:57:26;;;;;;;15.33;10.03;;;14.90;41.70;;;;;;5051546;28;20514;-43
2022/03/28 06:59:52;;;;;;;19.93;10.30;;;15.40;41.00;;;;;;5050783;28;20196;-43
2022/03/28 07:02:18;;;;;;;11.10;9.63;;;15.80;40.50;;;;;;5050733;28;20204;-42
2022/03/28 07:04:44;;;;;;;13.83;10.07;;;15.90;40.00;;;;;;5050545;28;20918;-43
2022/03/28 07:07:10;;;;;;;10.97;9.17;;;15.90;39.90;;;;;;5054098;28;20238;-42
2022/03/28 07:09:35;;;;;;;11.63;9.20;;;16.00;39.80;;;;;;5056540;28;20246;-42
2022/03/28 07:12:03;;;;;;;12.90;9.90;;;16.20;39.60;;;;;;5051448;28;20231;-44
2022/03/28 07:14:29;;;;;;;15.40;11.07;;;16.20;39.60;;;;;;5050115;28;20541;-42
2022/03/28 07:16:55;;;;;;;14.30;9.40;;;16.20;39.90;;;;;;5070912;28;20496;-44
2022/03/28 07:19:20;;;;;;;14.27;10.17;;;16.30;39.60;;;;;;5055769;28;20197;-43
2022/03/28 07:21:47;;;;;;;11.57;10.20;;;16.50;38.90;;;;;;5049675;28;20250;-43
2022/03/28 07:24:12;;;;;;;14.47;9.80;;;16.80;38.60;;;;;;5049222;28;20871;-43
2022/03/28 07:26:38;;;;;;;13.50;10.17;;;17.20;38.00;;;;;;5050155;28;20439;-42
2022/03/28 07:29:04;;;;;;;14.00;10.07;;;17.40;37.30;;;;;;5049599;28;20204;-45
2022/03/28 07:31:30;;;;;;;14.07;9.90;;;17.40;36.90;;;;;;5047833;28;20196;-42
2022/03/28 07:34:29;;;;;;;16.27;9.67;;;17.60;36.50;;;;;;5053566;28;20489;-45
2022/03/28 07:36:43;;;;;;;13.23;9.30;;;17.70;36.10;;;;;;5044650;28;20490;-44
2022/03/28 07:39:08;;;;;;;14.57;10.03;;;17.50;36.00;;;;;;5049031;28;20684;-44
2022/03/28 07:41:34;;;;;;;18.43;11.40;;;17.60;36.10;;;;;;5050630;28;20435;-44
2022/03/28 07:44:00;;;;;;;14.53;10.50;;;17.60;36.40;;;;;;5048453;28;20196;-43
2022/03/28 07:46:26;;;;;;;12.80;9.90;;;17.80;36.30;;;;;;5049883;28;20858;-45
2022/03/28 07:48:51;;;;;;;14.20;10.70;;;18.00;36.50;;;;;;5047971;28;20717;-45
2022/03/28 07:51:17;;;;;;;15.40;11.00;;;18.30;35.00;;;;;;5048671;28;20205;-43
2022/03/28 07:53:42;;;;;;;14.63;11.07;;;18.30;34.50;;;;;;5049126;28;20648;-42
2022/03/28 07:56:08;;;;;;;14.83;9.77;;;18.60;34.80;;;;;;5045877;28;20250;-42
2022/03/28 07:58:34;;;;;;;16.37;11.57;;;18.70;34.20;;;;;;5043847;28;20204;-44
2022/03/28 08:01:00;;;;;;;16.70;12.07;;;19.00;34.40;;;;;;5038210;28;20184;-44
2022/03/28 08:03:25;;;;;;;14.80;11.03;;;19.20;33.90;;;;;;5044914;28;20189;-45
2022/03/28 08:05:53;;;;;;;15.07;11.83;;;19.50;33.80;;;;;;5045208;28;20200;-43
2022/03/28 08:08:20;;;;;;;16.10;11.10;;;19.70;33.70;;;;;;5048425;28;20357;-44
2022/03/28 08:10:46;;;;;;;15.53;11.43;;;19.70;33.10;;;;;;5048233;28;20431;-42
2022/03/28 08:13:12;;;;;;;17.03;11.73;;;19.80;32.80;;;;;;5045150;28;20497;-44
2022/03/28 08:15:38;;;;;;;17.50;11.83;;;20.00;33.20;;;;;;5048438;28;20443;-43
2022/03/28 08:18:04;;;;;;;15.43;11.40;;;20.20;32.90;;;;;;5040933;28;20299;-43
2022/03/28 08:20:30;;;;;;;15.80;11.87;;;20.40;32.50;;;;;;5030509;28;20483;-44
2022/03/28 08:22:59;;;;;;;19.03;11.13;;;20.50;32.00;;;;;;5045740;28;20474;-45
2022/03/28 08:25:24;;;;;;;14.87;12.33;;;20.50;31.40;;;;;;5046940;28;20204;-45
2022/03/28 08:27:50;;;;;;;16.03;11.43;;;20.50;31.10;;;;;;5049048;28;20801;-45
2022/03/28 08:30:17;;;;;;;15.90;11.70;;;20.50;30.90;;;;;;5042852;28;20223;-44
2022/03/28 08:32:43;;;;;;;19.30;11.90;;;20.50;30.70;;;;;;5047071;28;20839;-44
2022/03/28 08:35:09;;;;;;;14.10;11.43;;;20.40;30.10;;;;;;5024811;28;20446;-43
2022/03/28 08:37:36;;;;;;;17.20;11.83;;;20.60;31.30;;;;;;5047189;28;20544;-42
2022/03/28 08:40:02;;;;;;;18.77;12.00;;;20.60;29.60;;;;;;5047316;28;20951;-44
2022/03/28 08:42:27;;;;;;;18.90;12.80;;;20.70;29.60;;;;;;5052352;28;20442;-44
2022/03/28 08:44:53;;;;;;;23.43;12.30;;;20.90;29.70;;;;;;5052641;28;20439;-44
2022/03/28 08:47:23;;;;;;;17.00;12.67;;;21.00;29.30;;;;;;5048508;28;20558;-45
2022/03/28 08:49:53;;;;;;;20.27;11.80;;;21.10;29.20;;;;;;5037820;28;20200;-45
2022/03/28 08:52:20;;;;;;;24.80;15.00;;;21.30;29.40;;;;;;5053033;28;20530;-43
2022/03/28 08:54:46;;;;;;;18.93;13.50;;;21.40;29.10;;;;;;5045756;28;20435;-44
2022/03/28 08:57:13;;;;;;;20.07;13.40;;;21.40;29.00;;;;;;5051849;28;20478;-42
2022/03/28 08:59:39;;;;;;;22.23;12.73;;;21.50;28.80;;;;;;5050573;28;20443;-43
2022/03/28 09:02:04;;;;;;;16.43;13.00;;;21.60;29.10;;;;;;5054476;28;20433;-44
2022/03/28 09:04:30;;;;;;;17.30;13.23;;;21.80;29.10;;;;;;5052360;28;20212;-43
2022/03/28 09:06:57;;;;;;;17.10;12.57;;;21.80;29.10;;;;;;5048774;28;20188;-44
2022/03/28 09:09:28;;;;;;;18.00;12.47;;;22.00;28.70;;;;;;5052425;28;20200;-44
2022/03/28 09:11:57;;;;;;;18.63;13.30;;;22.00;29.80;;;;;;5054005;28;20447;-43
2022/03/28 09:14:34;;;;;;;22.00;11.57;;;22.20;29.30;;;;;;5045000;28;21227;-43
2022/03/28 09:17:06;;;;;;;15.80;12.93;;;22.40;29.30;;;;;;5052416;28;20494;-43
2022/03/28 09:19:42;;;;;;;15.30;13.10;;;22.50;28.60;;;;;;5049597;28;20438;-43
2022/03/28 09:22:25;;;;;;;19.87;13.10;;;22.60;28.90;;;;;;5048806;28;20438;-44
2022/03/28 09:24:54;;;;;;;17.93;13.77;;;22.80;29.20;;;;;;5046275;28;20485;-43
2022/03/28 09:27:22;;;;;;;24.80;13.87;;;22.90;28.70;;;;;;5053380;28;20454;-44
2022/03/28 09:30:07;;;;;;;21.60;13.93;;;23.00;28.60;;;;;;5054341;28;20496;-44
2022/03/28 09:32:38;;;;;;;21.80;14.23;;;23.20;28.60;;;;;;5052154;28;21162;-43
2022/03/28 09:35:19;;;;;;;17.63;12.63;;;23.20;28.60;;;;;;5054007;28;20442;-43
2022/03/28 09:37:53;;;;;;;20.40;13.43;;;23.30;28.30;;;;;;5053321;28;20490;-43
2022/03/28 09:40:33;;;;;;;21.97;13.77;;;23.20;28.00;;;;;;5054071;28;20439;-43
2022/03/28 09:43:00;;;;;;;18.70;14.77;;;23.40;28.10;;;;;;5055105;28;20446;-44
2022/03/28 09:45:33;;;;;;;18.17;14.10;;;23.60;27.90;;;;;;5052057;28;20438;-44
2022/03/28 09:48:03;;;;;;;18.00;13.57;;;23.80;27.80;;;;;;5046908;28;20964;-44
2022/03/28 09:50:33;;;;;;;22.23;14.70;;;23.90;27.20;;;;;;5050114;28;20534;-45
2022/03/28 09:53:31;;;;;;;18.17;13.57;;;24.10;27.60;;;;;;5042045;28;20486;-44
2022/03/28 09:56:09;;;;;;;18.63;14.97;;;24.30;27.20;;;;;;5048570;28;20451;-44
2022/03/28 09:58:49;;;;;;;18.77;15.43;;;24.40;26.50;;;;;;5048344;28;20581;-45
2022/03/28 10:01:25;;;;;;;20.13;14.17;;;24.40;26.00;;;;;;5051584;28;20805;-44
2022/03/28 10:03:54;;;;;;;18.50;14.27;;;24.60;26.30;;;;;;5049309;28;20486;-44
2022/03/28 10:06:21;;;;;;;20.37;15.87;;;24.60;26.10;;;;;;5047868;28;20476;-44
2022/03/28 10:08:47;;;;;;;20.80;15.30;;;24.70;26.10;;;;;;5050765;28;20434;-44
2022/03/28 10:11:14;;;;;;;20.70;15.90;;;24.90;25.60;;;;;;5050670;28;20431;-44
2022/03/28 10:13:40;;;;;;;20.10;16.20;;;25.00;25.70;;;;;;5049242;28;20277;-45
2022/03/28 10:16:06;;;;;;;21.50;14.80;;;25.00;25.40;;;;;;5050995;28;20442;-44
2022/03/28 10:18:40;;;;;;;20.10;15.50;;;25.20;25.50;;;;;;5050206;28;20514;-45
2022/03/28 10:21:18;;;;;;;20.87;14.83;;;25.30;25.10;;;;;;5049215;28;20496;-44
2022/03/28 10:24:01;;;;;;;20.53;16.43;;;25.30;24.60;;;;;;5044397;28;20825;-44
2022/03/28 10:26:36;;;;;;;25.13;16.80;;;25.30;24.70;;;;;;5047385;28;20455;-44
2022/03/28 10:29:11;;;;;;;22.37;15.27;;;25.40;24.80;;;;;;5037874;28;20450;-43
2022/03/28 10:31:52;;;;;;;19.57;11.47;;;25.50;24.30;;;;;;5048674;28;20454;-46
2022/03/28 10:34:43;;;;;;;19.80;12.90;;;25.80;25.90;;;;;;5049347;28;20893;-43
2022/03/28 10:37:43;;;;;;;16.63;12.27;;;26.10;25.50;;;;;;5049988;28;20926;-43
2022/03/28 10:40:12;;;;;;;17.60;12.53;;;26.40;25.00;;;;;;5040525;28;20805;-44
2022/03/28 10:43:06;;;;;;;19.17;12.87;;;26.60;24.70;;;;;;5048942;28;20496;-45
2022/03/28 10:45:49;;;;;;;16.60;13.37;;;26.80;24.70;;;;;;5044350;28;20455;-44
2022/03/28 10:48:16;;;;;;;15.83;12.10;;;27.00;23.40;;;;;;5049470;28;20471;-44
2022/03/28 10:50:49;;;;;;;11.67;10.47;;;27.10;23.70;;;;;;5049214;28;20434;-44
2022/03/28 10:53:39;;;;;;;19.00;14.03;;;27.40;23.00;;;;;;5050516;28;20443;-44
2022/03/28 10:56:20;;;;;;;17.27;11.63;;;27.60;22.60;;;;;;5034114;28;20446;-45
2022/03/28 10:58:51;;;;;;;13.80;11.73;;;27.90;23.40;;;;;;5050375;28;20946;-45
2022/03/28 11:01:20;;;;;;;13.80;12.00;;;28.00;23.20;;;;;;5050396;28;20853;-45
2022/03/28 11:03:55;;;;;;;14.10;11.97;;;28.20;23.00;;;;;;5050043;28;20427;-44
2022/03/28 11:06:43;;;;;;;14.57;11.47;;;28.50;23.30;;;;;;5042287;28;21041;-44
2022/03/28 11:09:09;;;;;;;15.40;12.63;;;28.50;23.30;;;;;;5048652;28;20431;-44
2022/03/28 11:11:35;;;;;;;15.60;11.60;;;28.60;23.40;;;;;;5049295;28;20553;-43
2022/03/28 11:14:04;;;;;;;11.40;10.20;;;28.70;23.30;;;;;;5055323;28;20223;-45
2022/03/28 11:16:53;;;;;;;12.53;11.20;;;28.80;23.10;;;;;;5050779;28;20235;-46
2022/03/28 11:19:20;;;;;;;15.50;13.17;;;29.00;23.10;;;;;;5044980;28;20576;-43
2022/03/28 11:22:10;;;;;;;17.83;11.10;;;29.10;22.30;;;;;;5049249;28;20434;-44
2022/03/28 11:24:45;;;;;;;17.03;13.80;;;29.30;23.00;;;;;;5048838;28;20957;-44
2022/03/28 11:27:11;;;;;;;13.13;11.80;;;29.30;21.40;;;;;;5049875;28;20950;-45
2022/03/28 11:29:37;;;;;;;14.70;10.97;;;29.30;22.80;;;;;;5046753;28;20439;-45
2022/03/28 11:32:11;;;;;;;12.13;10.93;;;29.30;22.40;;;;;;5047740;28;21248;-46
2022/03/28 11:34:37;;;;;;;14.27;11.33;;;29.50;22.90;;;;;;5045767;28;20224;-48
2022/03/28 11:37:04;;;;;;;17.93;12.63;;;29.60;22.60;;;;;;5044503;28;20486;-45
2022/03/28 11:39:32;;;;;;;17.37;12.80;;;29.70;22.50;;;;;;5044790;28;20451;-46
2022/03/28 11:41:59;;;;;;;13.50;11.40;;;29.70;21.20;;;;;;5046728;28;20450;-47
2022/03/28 11:44:25;;;;;;;18.27;13.07;;;29.70;22.50;;;;;;5050483;28;20443;-48
2022/03/28 11:46:55;;;;;;;14.77;12.33;;;29.70;22.40;;;;;;5046978;28;20439;-45
2022/03/28 11:49:21;;;;;;;14.97;13.37;;;29.80;22.70;;;;;;5044639;28;20443;-48
2022/03/28 11:51:48;;;;;;;14.10;11.13;;;29.90;22.60;;;;;;5046098;28;20451;-47
2022/03/28 11:54:16;;;;;;;14.13;11.40;;;30.00;22.80;;;;;;5045457;28;20570;-45
2022/03/28 11:59:30;;;;;;;19.17;15.23;;;30.10;22.70;;;;;;5047474;28;20442;-44
2022/03/28 12:02:02;;;;;;;14.67;10.87;;;30.20;21.40;;;;;;5047163;28;20428;-48
2022/03/28 12:04:29;;;;;;;18.00;15.70;;;30.10;22.50;;;;;;5047163;28;20485;-44
2022/03/28 12:06:54;;;;;;;18.10;15.37;;;30.20;21.60;;;;;;5036425;28;20455;-45
2022/03/28 12:09:21;;;;;;;18.97;15.50;;;30.20;20.80;;;;;;5042954;28;20944;-46
2022/03/28 12:12:05;;;;;;;21.60;14.67;;;30.20;21.10;;;;;;5045095;28;20192;-46
2022/03/28 12:14:32;;;;;;;17.70;13.80;;;30.20;21.50;;;;;;5043718;28;20473;-43
2022/03/28 12:16:57;;;;;;;19.73;13.40;;;30.00;22.30;;;;;;5044193;28;20494;-49
2022/03/28 12:19:26;;;;;;;19.20;14.80;;;30.00;22.20;;;;;;5046274;28;20572;-45
2022/03/28 12:21:55;;;;;;;23.10;14.70;;;29.80;21.60;;;;;;5047570;28;20192;-49
2022/03/28 12:24:23;;;;;;;17.60;15.70;;;29.80;21.60;;;;;;5045183;28;20458;-44
2022/03/28 12:26:51;;;;;;;21.53;14.63;;;29.70;21.10;;;;;;5048171;28;20430;-44
2022/03/28 12:29:17;;;;;;;19.57;15.80;;;29.80;21.80;;;;;;5047493;28;20439;-45
2022/03/28 12:31:48;;;;;;;17.93;15.00;;;29.90;21.50;;;;;;5044622;28;20492;-44
2022/03/28 12:34:15;;;;;;;20.17;15.67;;;30.00;21.70;;;;;;5047246;28;20218;-44
2022/03/28 12:36:41;;;;;;;19.93;16.17;;;30.10;21.20;;;;;;5044590;28;20473;-46
2022/03/28 12:39:10;;;;;;;18.93;15.70;;;30.10;20.90;;;;;;5047289;28;20514;-47